Time;durP1;ratioP1;P1;durP2;ratioP2;P2;SDS_P1;SDS_P2;PMS_P1;PMS_P2;Temp;Humidity;BMP_temperature;BMP_pressure;BME280_temperature;BME280_humidity;BME280_pressure;Samples;Min_cycle;Max_cycle;Signal;HPM_P1;HPM_P2
2023/06/01 00:02:03;;;;;;;0.75;0.75;;;;;;;19.64;81.93;100014.31;6232003;23;20017;-90
2023/06/01 00:04:28;;;;;;;0.75;0.50;;;;;;;19.61;81.56;100015.31;6233106;23;20007;-89
2023/06/01 00:06:54;;;;;;;0.65;0.65;;;;;;;19.64;81.48;100023.53;6183681;23;20021;-91
2023/06/01 00:09:20;;;;;;;1.77;0.80;;;;;;;19.54;81.52;100008.88;6233952;23;20438;-90
2023/06/01 00:11:45;;;;;;;0.52;0.52;;;;;;;19.59;81.82;100017.84;6208003;23;20013;-91
2023/06/01 00:14:11;;;;;;;0.40;0.40;;;;;;;19.55;81.88;100013.22;6208571;23;20016;-90
2023/06/01 00:16:37;;;;;;;0.73;0.63;;;;;;;19.54;82.48;100014.50;6208035;23;20215;-91
2023/06/01 00:19:03;;;;;;;1.17;0.47;;;;;;;19.54;82.12;100011.69;6207233;23;20041;-90
2023/06/01 00:21:31;;;;;;;1.60;1.50;;;;;;;19.50;82.02;100005.50;6208660;23;20032;-90
2023/06/01 00:23:57;;;;;;;0.40;0.40;;;;;;;19.45;83.37;100006.22;6209185;23;20356;-91
2023/06/01 00:26:23;;;;;;;0.63;0.63;;;;;;;19.42;83.38;100009.25;6234007;23;20024;-90
2023/06/01 00:28:50;;;;;;;0.50;0.50;;;;;;;19.40;83.06;100001.31;6208199;23;20506;-90
2023/06/01 00:31:15;;;;;;;0.45;0.45;;;;;;;19.39;83.07;99994.13;6233468;23;20017;-90
2023/06/01 00:33:41;;;;;;;1.20;1.13;;;;;;;19.36;83.58;99989.53;6208654;23;20079;-90
2023/06/01 00:36:07;;;;;;;0.60;0.43;;;;;;;19.33;83.97;99998.19;6233232;23;20146;-90
2023/06/01 00:38:33;;;;;;;1.80;0.85;;;;;;;19.23;85.08;99991.19;6209792;23;20514;-91
2023/06/01 00:40:59;;;;;;;1.20;1.13;;;;;;;19.29;85.50;100006.06;6185056;23;20036;-90
2023/06/01 00:43:24;;;;;;;0.90;0.90;;;;;;;19.23;86.05;99991.19;6209752;23;20012;-90
2023/06/01 00:45:50;;;;;;;0.05;0.05;;;;;;;19.24;87.00;100003.97;6209860;23;20032;-90
2023/06/01 00:48:16;;;;;;;4.10;1.25;;;;;;;19.14;92.73;99999.78;6208327;23;20016;-90
2023/06/01 00:50:42;;;;;;;0.47;0.47;;;;;;;19.04;96.75;100002.00;6235369;23;20012;-90
2023/06/01 00:53:11;;;;;;;0.65;0.65;;;;;;;19.01;98.79;100000.94;6236092;23;20763;-89
2023/06/01 00:55:36;;;;;;;0.45;0.45;;;;;;;18.84;100.00;99999.25;6210666;23;20017;-90
2023/06/01 00:58:02;;;;;;;0.55;0.47;;;;;;;18.82;99.13;100002.53;6209732;23;20030;-90
2023/06/01 01:06:35;;;;;;;0.63;0.40;;;;;;;18.61;95.47;100015.84;6331331;22;20034;-89
2023/06/01 01:09:01;;;;;;;0.85;0.85;;;;;;;18.63;95.79;100010.50;6281142;22;20068;-90
2023/06/01 01:11:28;;;;;;;0.73;0.60;;;;;;;18.57;96.44;100020.91;6281667;22;20014;-90
2023/06/01 01:14:23;;;;;;;1.17;0.60;;;;;;;18.56;96.25;100016.53;6281317;22;20019;-90
2023/06/01 01:17:02;;;;;;;0.70;0.70;;;;;;;18.44;97.30;100012.00;6255815;22;20444;-89
2023/06/01 01:19:57;;;;;;;1.15;0.95;;;;;;;18.45;97.63;100018.41;6256094;22;20098;-89
2023/06/01 01:22:35;;;;;;;1.50;0.80;;;;;;;18.38;97.87;100011.19;6281832;22;20098;-89
2023/06/01 01:25:07;;;;;;;0.30;0.30;;;;;;;18.30;98.80;100012.88;6281911;22;20018;-89
2023/06/01 01:27:49;;;;;;;1.20;0.77;;;;;;;18.24;99.41;100009.19;6281117;22;20019;-89
2023/06/01 01:30:15;;;;;;;0.75;0.75;;;;;;;18.24;99.23;100009.19;6307488;22;20334;-89
2023/06/01 01:32:41;;;;;;;0.40;0.40;;;;;;;18.17;98.44;100009.63;6281276;22;20011;-90
2023/06/01 01:35:09;;;;;;;0.38;0.35;;;;;;;18.20;98.50;100014.25;6281015;22;20011;-90
2023/06/01 01:37:35;;;;;;;2.70;1.38;;;;;;;18.15;98.93;100012.16;6256183;22;20056;-89
2023/06/01 01:40:01;;;;;;;0.90;0.65;;;;;;;18.05;100.00;100007.91;6256112;22;20022;-89
2023/06/01 01:42:27;;;;;;;0.60;0.47;;;;;;;18.04;100.00;100007.16;6281875;22;20026;-89
2023/06/01 01:44:53;;;;;;;1.23;1.13;;;;;;;17.95;100.00;99992.47;6255598;22;20453;-89
2023/06/01 01:47:27;;;;;;;1.08;0.95;;;;;;;17.97;100.00;100006.78;6254691;22;20042;-89
2023/06/01 01:49:59;;;;;;;1.60;1.42;;;;;;;17.79;100.00;99993.00;6253947;22;20060;-89
2023/06/01 01:52:38;;;;;;;1.45;0.63;;;;;;;17.82;100.00;99995.63;6281243;22;20015;-89
2023/06/01 01:55:07;;;;;;;0.75;0.75;;;;;;;17.77;100.00;100006.75;6280609;22;20053;-89
2023/06/01 01:57:34;;;;;;;1.60;1.17;;;;;;;17.63;100.00;100006.28;6280652;22;20085;-89
2023/06/01 02:00:01;;;;;;;0.50;0.30;;;;;;;17.49;100.00;100007.06;6255180;22;20509;-89
2023/06/01 02:02:27;;;;;;;3.03;0.75;;;;;;;17.39;100.00;99990.84;6249059;22;20343;-89
2023/06/01 02:04:55;;;;;;;3.20;2.08;;;;;;;17.35;100.00;99996.59;6224428;22;20100;-89
2023/06/01 02:07:21;;;;;;;0.80;0.80;;;;;;;17.36;100.00;100000.97;6250953;22;20043;-89
2023/06/01 02:09:47;;;;;;;1.50;1.40;;;;;;;17.33;100.00;99992.75;6249917;22;20343;-90
2023/06/01 02:12:13;;;;;;;0.82;0.50;;;;;;;17.27;100.00;99998.25;6249705;22;20003;-88
2023/06/01 02:14:39;;;;;;;0.55;0.55;;;;;;;17.29;100.00;99997.78;6275248;22;20011;-89
2023/06/01 02:17:07;;;;;;;0.73;0.70;;;;;;;17.14;100.00;99989.38;6248999;22;20003;-89
2023/06/01 02:19:33;;;;;;;6.97;0.73;;;;;;;16.99;100.00;99983.75;6249630;22;20012;-88
2023/06/01 02:21:59;;;;;;;0.63;0.63;;;;;;;16.87;100.00;99984.03;6225679;22;20029;-89
2023/06/01 02:24:25;;;;;;;0.40;0.40;;;;;;;16.76;100.00;99982.59;6224809;22;20454;-89
2023/06/01 02:26:55;;;;;;;0.60;0.45;;;;;;;16.72;100.00;99976.41;6224805;22;20308;-89
2023/06/01 02:29:24;;;;;;;1.92;1.77;;;;;;;16.68;100.00;99989.03;6226118;22;20018;-89
2023/06/01 02:31:51;;;;;;;0.85;0.55;;;;;;;16.63;100.00;99975.69;6276538;22;20069;-89
2023/06/01 02:34:18;;;;;;;1.15;1.05;;;;;;;16.63;100.00;99987.69;6274301;22;20007;-88
2023/06/01 02:36:46;;;;;;;0.60;0.60;;;;;;;16.58;100.00;99974.34;6251035;22;20011;-89
2023/06/01 02:39:12;;;;;;;0.50;0.50;;;;;;;16.53;100.00;99969.38;6250310;22;20011;-88
2023/06/01 02:41:38;;;;;;;0.52;0.52;;;;;;;16.57;100.00;99983.22;6276427;22;20097;-89
2023/06/01 02:44:03;;;;;;;1.83;0.85;;;;;;;16.48;100.00;99970.03;6250116;22;20011;-89
2023/06/01 02:46:29;;;;;;;0.98;0.88;;;;;;;16.44;100.00;99974.28;6250794;22;20011;-89
2023/06/01 02:48:55;;;;;;;1.33;0.90;;;;;;;16.36;100.00;99965.47;6248567;22;20014;-88
2023/06/01 02:51:21;;;;;;;1.55;1.45;;;;;;;16.34;100.00;99967.97;6224673;22;20011;-89
2023/06/01 02:53:51;;;;;;;2.40;1.58;;;;;;;16.38;100.00;99971.34;6251374;22;20331;-89
2023/06/01 02:56:16;;;;;;;4.53;1.23;;;;;;;16.25;100.00;99962.47;6250900;22;20124;-88
2023/06/01 02:59:09;;;;;;;2.85;1.20;;;;;;;16.31;100.00;99958.50;6254842;22;20015;-89
2023/06/01 03:01:40;;;;;;;0.20;0.20;;;;;;;16.27;100.00;99957.13;6251113;22;20450;-89
2023/06/01 03:04:07;;;;;;;2.25;0.90;;;;;;;16.30;100.00;99964.56;6223003;22;20015;-91
2023/06/01 03:06:37;;;;;;;7.25;1.27;;;;;;;16.22;100.00;99974.59;6251153;22;20011;-89
2023/06/01 03:09:21;;;;;;;1.52;1.13;;;;;;;16.22;100.00;99972.56;6258809;22;20072;-89
2023/06/01 03:12:01;;;;;;;1.20;0.77;;;;;;;16.18;100.00;99963.56;6230537;22;20011;-89
2023/06/01 03:14:27;;;;;;;1.33;1.08;;;;;;;16.14;100.00;99962.19;6225584;22;20007;-89
2023/06/01 03:16:52;;;;;;;0.70;0.63;;;;;;;16.16;100.00;99973.72;6250444;22;20351;-90
2023/06/01 03:19:20;;;;;;;0.85;0.82;;;;;;;16.16;100.00;99982.09;6248689;22;20042;-89
2023/06/01 03:21:50;;;;;;;0.90;0.90;;;;;;;16.10;100.00;99984.00;6251279;22;20007;-90
2023/06/01 03:24:19;;;;;;;1.95;1.75;;;;;;;16.02;100.00;99985.59;6250902;22;20023;-89
2023/06/01 03:26:45;;;;;;;2.38;1.20;;;;;;;15.64;100.00;99975.88;6250151;22;20552;-91
2023/06/01 03:29:11;;;;;;;0.73;0.73;;;;;;;15.61;100.00;99987.97;6224102;22;20007;-90
2023/06/01 03:31:37;;;;;;;1.25;0.98;;;;;;;15.68;100.00;99989.69;6225297;22;20023;-91
2023/06/01 03:34:03;;;;;;;0.47;0.43;;;;;;;15.66;100.00;99970.56;6248493;22;20007;-90
2023/06/01 03:36:29;;;;;;;0.70;0.70;;;;;;;15.68;100.00;99986.88;6250358;22;20350;-89
2023/06/01 03:38:55;;;;;;;1.40;1.17;;;;;;;15.60;100.00;99989.25;6224638;22;20007;-91
2023/06/01 03:41:23;;;;;;;0.70;0.70;;;;;;;15.62;100.00;99988.75;6251385;22;20098;-88
2023/06/01 03:43:49;;;;;;;1.00;0.95;;;;;;;15.64;100.00;99994.66;6249770;22;20011;-90
2023/06/01 03:46:15;;;;;;;0.85;0.57;;;;;;;15.59;100.00;99984.13;6249528;22;20430;-90
2023/06/01 03:48:41;;;;;;;1.80;1.67;;;;;;;15.69;100.00;99991.97;6248080;22;20011;-89
2023/06/01 03:51:07;;;;;;;0.75;0.75;;;;;;;15.67;100.00;99979.75;6249898;22;20015;-89
2023/06/01 03:53:34;;;;;;;0.90;0.90;;;;;;;15.67;100.00;99986.09;6249868;22;20029;-88
2023/06/01 03:56:00;;;;;;;1.75;1.08;;;;;;;15.68;100.00;99982.06;6249946;22;20446;-89
2023/06/01 03:58:31;;;;;;;1.92;1.83;;;;;;;15.82;100.00;99994.56;6276228;22;20018;-88
2023/06/01 04:00:57;;;;;;;1.23;1.13;;;;;;;15.74;100.00;99984.97;6248530;22;20023;-89
2023/06/01 04:03:23;;;;;;;1.27;1.17;;;;;;;15.78;100.00;99991.16;6224017;22;20015;-89
2023/06/01 04:05:50;;;;;;;0.45;0.45;;;;;;;15.86;100.00;99995.16;6249405;22;20043;-89
2023/06/01 04:08:17;;;;;;;0.75;0.63;;;;;;;15.89;100.00;99985.06;6224825;22;20015;-90
2023/06/01 04:10:42;;;;;;;1.35;1.25;;;;;;;15.90;100.00;99992.97;6249335;22;20019;-89
2023/06/01 04:13:09;;;;;;;1.45;0.45;;;;;;;15.89;100.00;99996.25;6224901;22;20019;-89
2023/06/01 04:15:35;;;;;;;2.30;0.82;;;;;;;15.90;100.00;99995.00;6225566;22;20011;-88
2023/06/01 04:18:02;;;;;;;1.67;1.45;;;;;;;15.93;100.00;99985.69;6274536;22;20421;-89
2023/06/01 04:20:38;;;;;;;0.63;0.63;;;;;;;15.92;100.00;99984.13;6251592;22;20092;-88
2023/06/01 04:23:04;;;;;;;1.75;1.33;;;;;;;15.99;100.00;99978.16;6249678;22;20462;-89
2023/06/01 04:25:30;;;;;;;0.60;0.55;;;;;;;16.12;100.00;99970.31;6224602;22;20411;-89
2023/06/01 04:27:56;;;;;;;0.57;0.57;;;;;;;16.13;100.00;99978.25;6249326;22;20011;-89
2023/06/01 04:30:24;;;;;;;0.55;0.55;;;;;;;16.17;100.00;99978.84;6250401;22;20022;-89
2023/06/01 04:32:51;;;;;;;2.33;1.88;;;;;;;16.28;100.00;99992.28;6223614;22;20031;-88
2023/06/01 04:35:19;;;;;;;0.30;0.30;;;;;;;16.34;100.00;99991.13;6249736;22;20007;-89
2023/06/01 04:37:46;;;;;;;0.80;0.80;;;;;;;16.30;100.00;99990.53;6249770;22;20073;-90
2023/06/01 04:40:13;;;;;;;0.47;0.47;;;;;;;16.30;100.00;99981.38;6224492;22;20015;-89
2023/06/01 04:42:41;;;;;;;0.60;0.50;;;;;;;16.41;100.00;99990.00;6249818;22;20015;-88
2023/06/01 04:45:11;;;;;;;0.80;0.73;;;;;;;16.55;100.00;99991.28;6249317;22;20081;-89
2023/06/01 04:47:39;;;;;;;0.70;0.70;;;;;;;16.64;100.00;99992.03;6224252;22;20007;-90
2023/06/01 04:50:10;;;;;;;0.32;0.32;;;;;;;16.68;100.00;99984.22;6224028;22;20008;-89
2023/06/01 04:52:40;;;;;;;0.30;0.30;;;;;;;16.82;100.00;99979.13;6224042;22;20477;-90
2023/06/01 04:55:06;;;;;;;0.30;0.30;;;;;;;16.93;100.00;99984.94;6242191;22;20399;-89
2023/06/01 04:57:33;;;;;;;1.38;1.27;;;;;;;16.98;100.00;99985.03;6220327;22;19999;-89
2023/06/01 05:00:00;;;;;;;1.02;0.63;;;;;;;17.07;100.00;99987.72;6218920;22;20415;-91
2023/06/01 05:02:26;;;;;;;2.15;1.38;;;;;;;17.05;100.00;99978.25;6217460;22;20011;-92
2023/06/01 05:04:52;;;;;;;2.42;1.42;;;;;;;17.03;100.00;99975.16;6232339;22;20027;-91
2023/06/01 05:07:18;;;;;;;0.65;0.52;;;;;;;17.22;100.00;99982.13;6233855;22;20016;-89
2023/06/01 05:09:43;;;;;;;0.57;0.57;;;;;;;17.37;100.00;99993.34;6208494;22;20099;-89
2023/06/01 05:12:09;;;;;;;0.40;0.40;;;;;;;17.44;100.00;99981.72;6209160;22;20026;-89
2023/06/01 05:14:35;;;;;;;0.52;0.50;;;;;;;17.53;100.00;99968.38;6211599;23;20008;-90
2023/06/01 05:17:01;;;;;;;0.20;0.20;;;;;;;17.69;99.90;99976.28;6212081;23;20039;-89
2023/06/01 05:19:27;;;;;;;0.65;0.65;;;;;;;17.81;98.35;99982.06;6213270;23;20035;-90
2023/06/01 05:21:54;;;;;;;0.35;0.28;;;;;;;17.98;96.86;99980.28;6212158;23;20063;-90
2023/06/01 05:24:20;;;;;;;1.00;0.75;;;;;;;18.06;96.23;99970.19;6187818;23;20059;-90
2023/06/01 05:26:45;;;;;;;0.32;0.30;;;;;;;18.16;95.76;99968.75;6214034;23;20008;-90
2023/06/01 05:29:12;;;;;;;0.52;0.47;;;;;;;18.32;93.42;99976.63;6214241;23;20440;-89
2023/06/01 05:31:37;;;;;;;1.05;1.05;;;;;;;18.46;91.20;99970.19;6216267;23;20015;-89
2023/06/01 05:34:03;;;;;;;0.93;0.85;;;;;;;18.56;88.59;99980.00;6241667;22;20027;-91
2023/06/01 05:36:31;;;;;;;1.52;1.15;;;;;;;18.67;88.47;99976.56;6216234;22;20016;-91
2023/06/01 05:38:58;;;;;;;0.85;0.57;;;;;;;18.85;86.05;99984.69;6216478;23;20258;-91
2023/06/01 05:41:25;;;;;;;1.85;1.13;;;;;;;18.97;83.96;99974.31;6215891;23;20099;-90
2023/06/01 05:43:52;;;;;;;1.95;1.83;;;;;;;19.17;83.53;99979.88;6216176;23;20095;-91
2023/06/01 05:46:18;;;;;;;2.17;0.82;;;;;;;19.42;82.29;99981.91;6191664;23;20016;-92
2023/06/01 05:48:44;;;;;;;0.40;0.40;;;;;;;19.59;82.29;99978.47;6239176;22;20487;-91
2023/06/01 05:51:12;;;;;;;1.25;0.82;;;;;;;19.82;79.67;99980.16;6217504;23;20016;-90
2023/06/01 05:53:38;;;;;;;0.63;0.63;;;;;;;20.00;78.95;99985.41;6239510;23;20569;-92
2023/06/01 05:56:03;;;;;;;1.10;0.80;;;;;;;20.20;77.51;99982.44;6240538;23;20082;-92
2023/06/01 05:58:29;;;;;;;1.27;0.75;;;;;;;20.36;74.91;99978.16;6217128;23;20016;-90
2023/06/01 06:00:56;;;;;;;1.55;1.30;;;;;;;20.55;72.74;99975.66;6217314;23;20492;-91
2023/06/01 06:03:22;;;;;;;0.82;0.82;;;;;;;20.74;74.63;99976.78;6214981;23;20076;-91
2023/06/01 06:05:48;;;;;;;1.33;0.47;;;;;;;20.91;74.30;99969.09;6236107;22;20008;-94
2023/06/01 06:08:14;;;;;;;1.45;1.35;;;;;;;21.15;72.49;99994.06;6190943;23;20020;-91
2023/06/01 06:10:41;;;;;;;0.95;0.93;;;;;;;21.24;70.90;99988.94;6214701;23;20115;-91
2023/06/01 06:13:06;;;;;;;1.13;0.82;;;;;;;21.40;68.03;99988.16;6189781;23;20015;-92
2023/06/01 06:15:32;;;;;;;0.60;0.45;;;;;;;21.48;69.45;99984.81;6240111;23;20012;-94
2023/06/01 06:17:58;;;;;;;0.52;0.52;;;;;;;21.70;68.65;99984.81;6239127;23;20020;-92
2023/06/01 06:20:23;;;;;;;1.40;1.25;;;;;;;21.92;66.87;99990.44;6215090;23;20451;-92
2023/06/01 06:22:52;;;;;;;2.08;1.88;;;;;;;22.24;65.05;99988.06;6200443;23;20020;-93
2023/06/01 06:25:19;;;;;;;1.90;0.68;;;;;;;22.40;61.60;99978.75;6215179;23;20436;-93
2023/06/01 06:27:45;;;;;;;1.27;0.95;;;;;;;22.50;61.62;99994.13;6213026;23;20095;-93
2023/06/01 06:30:11;;;;;;;1.40;0.73;;;;;;;22.56;60.50;99991.28;6197069;23;20264;-93
2023/06/01 06:32:36;;;;;;;0.65;0.65;;;;;;;22.69;61.13;99988.66;6227000;22;20019;-92
2023/06/01 06:35:02;;;;;;;0.55;0.55;;;;;;;22.79;59.33;99992.72;6211408;23;20086;-93
2023/06/01 06:37:29;;;;;;;4.95;1.23;;;;;;;23.09;61.02;99995.63;6240569;22;20040;-93
2023/06/01 06:39:55;;;;;;;0.45;0.43;;;;;;;23.28;59.91;100007.84;6240519;22;20091;-93
2023/06/01 06:42:20;;;;;;;1.20;0.95;;;;;;;23.44;58.22;99994.88;6239444;22;20439;-92
2023/06/01 06:44:46;;;;;;;1.63;1.25;;;;;;;23.72;58.84;99983.31;6239501;23;20008;-94
2023/06/01 06:47:15;;;;;;;1.10;0.85;;;;;;;23.83;59.71;99981.13;6241357;22;20008;-92
2023/06/01 06:49:41;;;;;;;0.57;0.52;;;;;;;24.12;60.75;99991.66;6215087;23;20375;-93
2023/06/01 06:52:08;;;;;;;0.50;0.50;;;;;;;24.42;57.74;100002.16;6241852;22;20028;-92
2023/06/01 06:54:35;;;;;;;0.80;0.80;;;;;;;24.47;59.77;100001.31;6214740;23;20548;-93
2023/06/01 06:57:00;;;;;;;0.52;0.52;;;;;;;24.61;57.15;100000.13;6240365;23;20463;-93
2023/06/01 06:59:26;;;;;;;1.30;0.98;;;;;;;24.54;54.86;99993.00;6240287;23;20004;-94
2023/06/01 07:01:52;;;;;;;0.95;0.93;;;;;;;24.34;57.13;99989.91;6240151;23;20034;-93
2023/06/01 07:04:17;;;;;;;1.15;0.40;;;;;;;24.76;55.55;99994.75;6225228;22;20075;-92
2023/06/01 07:06:43;;;;;;;1.42;1.27;;;;;;;24.91;53.78;99994.34;6275713;22;20431;-93
2023/06/01 07:09:09;;;;;;;0.57;0.57;;;;;;;25.12;51.26;100000.19;6249597;22;20005;-93
2023/06/01 07:11:35;;;;;;;1.45;1.15;;;;;;;25.16;49.23;100001.41;6275713;22;20426;-92
2023/06/01 07:14:00;;;;;;;0.75;0.75;;;;;;;25.22;49.76;100004.19;6250435;22;20089;-93
2023/06/01 07:16:28;;;;;;;1.35;1.00;;;;;;;25.15;50.74;100028.28;6303277;22;20343;-92
2023/06/01 07:18:53;;;;;;;1.95;0.77;;;;;;;25.30;51.52;100003.03;6248914;22;20015;-93
2023/06/01 07:21:19;;;;;;;1.23;1.13;;;;;;;25.41;51.25;100005.69;6275950;22;20321;-92
2023/06/01 07:23:45;;;;;;;1.40;1.25;;;;;;;25.41;52.35;99999.22;6275986;22;20003;-92
2023/06/01 07:26:11;;;;;;;0.50;0.50;;;;;;;25.60;52.35;100005.66;6303400;22;20011;-92
2023/06/01 07:28:36;;;;;;;1.77;1.20;;;;;;;25.48;53.55;100016.41;6275820;22;20053;-94
2023/06/01 07:31:03;;;;;;;2.55;0.88;;;;;;;25.58;54.52;99996.91;6251760;22;20066;-92
2023/06/01 07:33:29;;;;;;;4.60;1.45;;;;;;;25.95;53.42;99999.63;6249626;22;20014;-93
2023/06/01 07:35:56;;;;;;;3.47;2.05;;;;;;;26.10;52.96;99992.63;6274849;22;20027;-91
2023/06/01 07:38:22;;;;;;;2.20;1.75;;;;;;;26.28;52.39;100001.09;6302906;22;20245;-92
2023/06/01 07:40:48;;;;;;;0.80;0.80;;;;;;;26.31;49.25;99993.53;6275438;22;20170;-93
2023/06/01 07:43:14;;;;;;;0.63;0.63;;;;;;;26.50;48.09;100014.06;6275538;22;20458;-92
2023/06/01 07:45:42;;;;;;;0.98;0.95;;;;;;;26.71;47.45;100014.91;6275841;22;20060;-93
2023/06/01 07:48:08;;;;;;;0.55;0.55;;;;;;;26.33;46.25;100010.78;6248730;22;20042;-93
2023/06/01 07:50:33;;;;;;;1.50;1.27;;;;;;;26.16;49.16;100004.66;6249844;22;20439;-95
2023/06/01 07:52:59;;;;;;;1.13;1.02;;;;;;;26.29;48.50;99996.13;6275348;22;20383;-95
2023/06/01 07:55:25;;;;;;;0.77;0.77;;;;;;;26.56;47.85;100013.97;6275987;22;20299;-93
2023/06/01 07:57:52;;;;;;;2.05;1.08;;;;;;;26.59;48.85;99996.56;6249972;22;20351;-93
2023/06/01 08:00:18;;;;;;;0.75;0.75;;;;;;;26.56;49.62;100009.03;6275498;22;20435;-93
2023/06/01 08:02:44;;;;;;;0.82;0.65;;;;;;;26.64;49.64;100009.91;6275485;22;20015;-92
2023/06/01 08:05:11;;;;;;;0.70;0.57;;;;;;;26.68;50.27;99978.28;6274308;22;20093;-93
2023/06/01 08:07:37;;;;;;;1.08;0.82;;;;;;;26.96;49.63;99997.59;6275628;22;20405;-92
2023/06/01 08:10:08;;;;;;;0.95;0.75;;;;;;;27.27;48.07;99997.38;6274125;22;20462;-93
2023/06/01 08:12:35;;;;;;;1.15;1.13;;;;;;;27.34;48.52;99993.06;6274624;22;20331;-93
2023/06/01 08:15:01;;;;;;;0.77;0.77;;;;;;;26.71;47.73;99972.25;6275807;22;20489;-92
2023/06/01 08:17:27;;;;;;;3.13;0.77;;;;;;;26.32;49.94;99997.91;6250026;22;20007;-93
2023/06/01 08:19:53;;;;;;;1.92;1.35;;;;;;;26.44;48.84;100002.06;6274346;22;20069;-93
2023/06/01 08:22:20;;;;;;;1.48;0.90;;;;;;;26.69;49.56;99994.78;6275473;22;20003;-94
2023/06/01 08:24:47;;;;;;;0.60;0.60;;;;;;;27.06;48.36;99999.41;6275863;22;20619;-93
2023/06/01 08:27:23;;;;;;;0.80;0.80;;;;;;;27.38;47.88;100009.81;6250034;22;20011;-95
2023/06/01 08:29:49;;;;;;;1.27;1.17;;;;;;;27.55;47.00;99988.16;6249677;22;20054;-92
2023/06/01 08:32:16;;;;;;;0.75;0.60;;;;;;;27.78;47.45;99991.97;6275086;22;20015;-93
2023/06/01 08:34:46;;;;;;;0.60;0.60;;;;;;;27.82;47.95;99995.22;6248662;22;20400;-93
2023/06/01 08:37:13;;;;;;;5.60;1.63;;;;;;;28.10;46.52;100002.31;6276898;22;20072;-93
2023/06/01 08:39:39;;;;;;;0.38;0.38;;;;;;;28.24;46.07;100006.56;6302228;22;20003;-93
2023/06/01 08:42:08;;;;;;;1.27;1.17;;;;;;;28.36;45.71;100002.06;6249673;22;20086;-93
2023/06/01 08:44:41;;;;;;;0.85;0.85;;;;;;;28.50;45.12;99997.78;6302850;22;20011;-93
2023/06/01 08:47:07;;;;;;;1.38;0.82;;;;;;;28.64;45.18;99993.47;6249271;22;20379;-94
2023/06/01 08:49:34;;;;;;;1.92;1.80;;;;;;;28.85;44.15;100015.47;6248502;22;20102;-92
2023/06/01 08:52:07;;;;;;;1.42;1.02;;;;;;;28.94;42.65;100004.28;6275199;22;20011;-94
2023/06/01 08:54:33;;;;;;;3.97;0.90;;;;;;;28.97;40.74;99996.66;6249935;22;20022;-93
2023/06/01 08:57:04;;;;;;;1.40;1.30;;;;;;;28.82;43.29;100002.31;6275180;22;20007;-94
2023/06/01 08:59:31;;;;;;;0.73;0.57;;;;;;;28.82;43.11;100008.03;6250634;22;20094;-93
2023/06/01 09:01:57;;;;;;;0.85;0.85;;;;;;;28.57;43.69;99988.50;6304629;22;20017;-93
2023/06/01 09:04:23;;;;;;;0.85;0.85;;;;;;;28.68;43.47;99990.25;6276150;22;20015;-93
2023/06/01 09:06:49;;;;;;;1.77;1.08;;;;;;;28.93;43.16;100002.75;6277535;22;20011;-93
2023/06/01 09:09:14;;;;;;;1.83;1.50;;;;;;;29.00;41.55;99984.88;6251082;22;20015;-95
2023/06/01 09:11:40;;;;;;;1.00;0.85;;;;;;;28.57;42.06;99994.22;6277582;22;20339;-93
2023/06/01 09:14:22;;;;;;;1.50;1.27;;;;;;;28.68;42.69;100004.50;6276413;22;20459;-93
2023/06/01 09:16:48;;;;;;;0.93;0.90;;;;;;;28.74;41.17;99999.44;6277220;22;20526;-93
2023/06/01 09:19:13;;;;;;;0.70;0.70;;;;;;;28.53;39.25;100005.22;6275391;22;20003;-93
2023/06/01 09:21:39;;;;;;;1.10;0.90;;;;;;;28.83;38.47;99986.72;6278138;22;20026;-94
2023/06/01 09:24:24;;;;;;;1.90;1.33;;;;;;;27.90;37.97;100001.00;6276765;22;20331;-94
2023/06/01 09:26:49;;;;;;;1.52;1.42;;;;;;;27.80;39.32;99992.19;6278227;22;20087;-94
2023/06/01 09:29:16;;;;;;;1.40;1.00;;;;;;;27.76;38.77;99980.38;6250819;22;20439;-93
2023/06/01 09:31:46;;;;;;;0.60;0.50;;;;;;;28.41;38.37;99986.91;6252117;22;20034;-93
2023/06/01 09:34:19;;;;;;;0.80;0.80;;;;;;;28.95;35.81;99985.81;6249876;22;20039;-93
2023/06/01 09:36:49;;;;;;;0.70;0.70;;;;;;;28.98;32.85;99975.34;6278342;22;20030;-95
2023/06/01 09:39:17;;;;;;;0.40;0.40;;;;;;;28.91;34.34;99987.53;6276511;22;20057;-93
2023/06/01 09:41:52;;;;;;;2.10;0.95;;;;;;;28.95;31.54;99977.25;6252864;22;20524;-94
2023/06/01 09:44:33;;;;;;;1.88;0.77;;;;;;;29.23;31.51;99978.47;6304169;22;20015;-94
2023/06/01 09:46:59;;;;;;;0.82;0.82;;;;;;;29.46;31.85;99988.59;6276852;22;20491;-93
2023/06/01 09:49:30;;;;;;;1.05;0.65;;;;;;;29.51;30.63;99979.09;6303313;22;20007;-94
2023/06/01 09:52:05;;;;;;;1.75;0.70;;;;;;;29.72;31.48;99983.84;6277273;22;20014;-94
2023/06/01 09:54:51;;;;;;;0.73;0.73;;;;;;;29.83;30.72;99969.16;6276754;22;20007;-93
2023/06/01 09:57:24;;;;;;;0.75;0.75;;;;;;;30.18;30.65;99959.59;6277185;22;20007;-92
2023/06/01 09:59:50;;;;;;;0.60;0.60;;;;;;;30.19;29.46;99972.56;6251023;22;20473;-93
2023/06/01 10:02:21;;;;;;;0.57;0.52;;;;;;;29.85;29.05;99970.09;6275918;22;20011;-94
2023/06/01 10:04:52;;;;;;;0.30;0.30;;;;;;;29.64;29.22;99970.31;6275726;22;20145;-94
2023/06/01 10:07:19;;;;;;;0.60;0.60;;;;;;;30.10;30.33;99979.66;6225588;22;20011;-95
2023/06/01 10:09:51;;;;;;;0.38;0.38;;;;;;;30.35;29.80;99959.75;6250799;22;20019;-94
2023/06/01 10:12:17;;;;;;;1.80;1.17;;;;;;;30.29;29.14;99955.56;6251240;22;20012;-94
2023/06/01 10:14:42;;;;;;;0.63;0.63;;;;;;;30.19;28.30;99955.41;6225457;22;20019;-93
2023/06/01 10:17:09;;;;;;;3.67;0.88;;;;;;;30.00;28.52;99946.50;6250225;22;20027;-93
2023/06/01 10:19:37;;;;;;;0.32;0.32;;;;;;;29.79;28.34;99969.56;6276052;22;20085;-95
2023/06/01 10:22:03;;;;;;;1.20;1.00;;;;;;;29.50;29.01;99951.06;6276993;22;20022;-94
2023/06/01 10:24:29;;;;;;;1.05;0.75;;;;;;;29.85;29.91;99940.75;6276524;22;20007;-94
2023/06/01 10:27:02;;;;;;;0.43;0.43;;;;;;;30.41;28.76;99937.38;6250642;22;20446;-94
2023/06/01 10:29:30;;;;;;;0.80;0.75;;;;;;;30.70;28.92;99939.97;6251205;22;20477;-95
2023/06/01 10:31:57;;;;;;;1.20;1.10;;;;;;;30.76;29.03;99949.09;6251402;22;20022;-93
2023/06/01 10:34:44;;;;;;;0.80;0.80;;;;;;;30.94;28.66;99939.25;6250035;22;20022;-93
2023/06/01 10:37:10;;;;;;;0.85;0.85;;;;;;;30.84;27.48;99930.53;6276367;22;20018;-94
2023/06/01 10:39:36;;;;;;;1.23;1.17;;;;;;;30.71;28.32;99918.59;6303831;22;20014;-94
2023/06/01 10:42:12;;;;;;;1.10;1.10;;;;;;;30.60;29.55;99941.94;6276680;22;20007;-94
2023/06/01 10:44:37;;;;;;;1.10;1.00;;;;;;;31.02;29.33;99935.03;6303133;22;20007;-94
2023/06/01 10:47:04;;;;;;;1.08;0.98;;;;;;;30.67;27.70;99926.81;6275998;22;20034;-94
2023/06/01 10:49:49;;;;;;;0.80;0.80;;;;;;;30.61;27.76;99938.50;6224931;22;20324;-93
2023/06/01 10:52:38;;;;;;;0.90;0.82;;;;;;;30.09;29.02;99926.63;6276255;22;20102;-94
2023/06/01 10:55:06;;;;;;;0.82;0.82;;;;;;;30.16;28.99;99932.91;6251566;22;20015;-93
2023/06/01 10:57:45;;;;;;;1.05;0.50;;;;;;;30.14;29.94;99927.75;6276198;22;20516;-94
2023/06/01 11:00:14;;;;;;;1.10;0.82;;;;;;;29.97;29.41;99924.75;6275769;22;20012;-93
2023/06/01 11:02:59;;;;;;;0.95;0.95;;;;;;;30.46;28.79;99913.56;6303257;22;20007;-94
2023/06/01 11:05:35;;;;;;;1.23;1.13;;;;;;;30.40;28.65;99918.72;6224780;22;20038;-93
2023/06/01 11:08:01;;;;;;;2.92;0.98;;;;;;;30.56;27.95;99913.72;6276276;22;20007;-95
2023/06/01 11:10:51;;;;;;;1.85;0.68;;;;;;;31.10;27.67;99917.78;6276251;22;20056;-95
2023/06/01 11:13:21;;;;;;;2.72;1.58;;;;;;;31.16;27.33;99903.25;6303153;22;20427;-94
2023/06/01 11:16:27;;;;;;;1.35;1.23;;;;;;;31.16;27.28;99915.47;6250046;22;20430;-94
2023/06/01 11:19:02;;;;;;;0.57;0.50;;;;;;;31.08;27.17;99922.59;6301094;22;20054;-95
2023/06/01 11:21:36;;;;;;;0.80;0.80;;;;;;;30.88;27.11;99913.72;6250581;22;20023;-95
2023/06/01 11:24:08;;;;;;;1.25;1.17;;;;;;;30.82;27.57;99903.81;6275499;22;20086;-94
2023/06/01 11:26:39;;;;;;;0.57;0.57;;;;;;;30.48;28.08;99898.69;6275777;22;20015;-94
2023/06/01 11:29:21;;;;;;;1.40;0.70;;;;;;;30.65;28.42;99900.88;6275985;22;20019;-94
2023/06/01 11:31:49;;;;;;;0.98;0.98;;;;;;;31.44;27.99;99894.22;6250595;22;20026;-95
2023/06/01 11:34:18;;;;;;;0.55;0.55;;;;;;;31.57;27.39;99878.84;6248388;22;20024;-94
2023/06/01 11:36:48;;;;;;;0.80;0.80;;;;;;;31.02;28.37;99888.44;6225381;22;20003;-94
2023/06/01 11:39:24;;;;;;;2.53;1.00;;;;;;;31.38;27.80;99890.84;6250184;22;20015;-94
2023/06/01 11:42:05;;;;;;;2.08;1.55;;;;;;;31.34;28.70;99868.31;6275880;22;20030;-94